createdAt,value
2022-11-21T00:01:17.772Z,3.08
2022-11-21T00:03:46.053Z,9.95
2022-11-21T00:06:15.933Z,3.72
2022-11-21T00:08:43.990Z,4.13
2022-11-21T00:11:11.865Z,9.50
2022-11-21T00:13:40.174Z,4.28
2022-11-21T00:16:10.008Z,3.67
2022-11-21T00:18:38.334Z,5.35
2022-11-21T00:21:07.833Z,11.73
2022-11-21T00:23:37.088Z,6.28
2022-11-21T00:26:06.306Z,7.65
2022-11-21T00:28:34.225Z,8.05
2022-11-21T00:31:02.266Z,2.83
2022-11-21T00:33:30.162Z,7.65
2022-11-21T00:35:58.066Z,3.40
2022-11-21T00:38:25.955Z,4.00
2022-11-21T00:40:55.199Z,10.25
2022-11-21T00:43:23.084Z,8.27
2022-11-21T00:45:50.982Z,6.13
2022-11-21T00:48:18.820Z,6.15
2022-11-21T00:50:50.036Z,6.75
2022-11-21T00:53:17.956Z,10.63
2022-11-21T00:55:45.874Z,6.10
2022-11-21T00:58:15.105Z,7.65
2022-11-21T01:00:43.037Z,4.63
2022-11-21T01:03:11.019Z,4.50
2022-11-21T01:05:38.879Z,7.97
2022-11-21T01:08:07.019Z,4.30
2022-11-21T01:10:35.559Z,7.10
2022-11-21T01:13:03.677Z,8.63
2022-11-21T01:15:32.994Z,3.20
2022-11-21T01:18:00.821Z,5.78
2022-11-21T01:20:28.687Z,4.97
2022-11-21T01:22:56.555Z,3.95
2022-11-21T01:25:24.385Z,4.20
2022-11-21T01:27:52.230Z,6.93
2022-11-21T01:30:20.134Z,3.50
2022-11-21T01:32:51.057Z,3.50
2022-11-21T01:35:19.039Z,3.08
2022-11-21T01:37:49.112Z,1.65
2022-11-21T01:40:17.603Z,4.00
2022-11-21T01:42:55.739Z,6.63
2022-11-21T01:46:03.397Z,2.47
2022-11-21T01:48:38.957Z,5.85
2022-11-21T01:51:11.172Z,2.55
2022-11-21T01:53:41.573Z,3.97
2022-11-21T01:56:10.705Z,3.10
2022-11-21T01:58:41.081Z,4.05
2022-11-21T02:01:09.395Z,4.32
2022-11-21T02:03:39.957Z,3.20
2022-11-21T02:06:11.046Z,3.25
2022-11-21T02:08:39.220Z,3.30
2022-11-21T02:11:14.631Z,2.38
2022-11-21T02:13:42.524Z,5.53
2022-11-21T02:16:10.405Z,2.42
2022-11-21T02:18:39.738Z,2.63
2022-11-21T02:21:18.895Z,3.72
2022-11-21T02:23:56.385Z,5.15
2022-11-21T02:26:29.561Z,3.55
2022-11-21T02:28:58.092Z,5.70
2022-11-21T02:31:26.014Z,2.55
2022-11-21T02:33:53.862Z,2.47
2022-11-21T02:36:42.573Z,1.40
2022-11-21T02:39:15.679Z,5.05
2022-11-21T02:41:52.751Z,3.38
2022-11-21T02:44:25.804Z,4.65
2022-11-21T02:46:54.130Z,6.55
2022-11-21T02:49:30.651Z,3.85
2022-11-21T02:51:58.523Z,7.15
2022-11-21T02:54:26.643Z,9.82
2022-11-21T02:56:57.541Z,8.10
2022-11-21T02:59:25.460Z,3.67
2022-11-21T03:01:53.374Z,10.23
2022-11-21T03:04:21.233Z,12.13
2022-11-21T03:06:49.255Z,8.93
2022-11-21T03:09:17.163Z,7.18
2022-11-21T03:11:45.035Z,5.38
2022-11-21T03:14:14.288Z,4.80
2022-11-21T03:16:42.284Z,9.02
2022-11-21T03:19:10.344Z,7.45
2022-11-21T03:21:38.226Z,4.70
2022-11-21T03:24:07.039Z,9.85
2022-11-21T03:26:34.917Z,7.07
2022-11-21T03:29:03.128Z,5.00
2022-11-21T03:31:32.441Z,12.27
2022-11-21T03:34:00.323Z,9.85
2022-11-21T03:36:28.412Z,11.52
2022-11-21T03:38:57.442Z,6.88
2022-11-21T03:41:31.243Z,11.27
2022-11-21T03:44:00.147Z,7.10
2022-11-21T03:46:28.623Z,9.85
2022-11-21T03:48:58.283Z,11.57
2022-11-21T03:51:26.443Z,6.70
2022-11-21T03:53:55.219Z,7.47
2022-11-21T03:56:23.239Z,5.57
2022-11-21T03:58:51.104Z,5.20
2022-11-21T04:01:19.475Z,9.13
2022-11-21T04:03:48.191Z,5.35
2022-11-21T04:06:19.589Z,4.70
2022-11-21T04:08:47.940Z,6.85
2022-11-21T04:11:15.799Z,7.75
2022-11-21T04:13:43.861Z,6.20
2022-11-21T04:16:11.767Z,7.30
2022-11-21T04:18:39.734Z,10.77
2022-11-21T04:21:09.352Z,4.85
2022-11-21T04:23:38.691Z,9.00
2022-11-21T04:26:06.729Z,10.82
2022-11-21T04:28:34.561Z,8.85
2022-11-21T04:31:10.480Z,11.57
2022-11-21T04:33:39.591Z,9.13
2022-11-21T04:36:08.217Z,5.40
2022-11-21T04:38:36.257Z,6.18
2022-11-21T04:41:06.124Z,10.77
2022-11-21T04:43:34.064Z,8.65
2022-11-21T04:46:02.045Z,11.82
2022-11-21T04:48:29.865Z,9.98
2022-11-21T04:50:57.734Z,8.18
2022-11-21T04:53:25.632Z,6.45
2022-11-21T04:55:53.606Z,6.15
2022-11-21T04:58:22.896Z,9.30
2022-11-21T05:00:50.825Z,8.32
2022-11-21T05:03:18.684Z,7.93
2022-11-21T05:05:46.772Z,2.28
2022-11-21T05:08:14.609Z,7.93
2022-11-21T05:10:59.865Z,10.32
2022-11-21T05:13:29.062Z,9.27
2022-11-21T05:15:59.856Z,14.68
2022-11-21T05:18:27.677Z,7.63
2022-11-21T05:20:55.948Z,8.13
2022-11-21T05:23:23.944Z,9.73
2022-11-21T05:25:51.824Z,8.57
2022-11-21T05:28:19.701Z,8.13
2022-11-21T05:30:48.995Z,6.30
2022-11-21T05:33:16.925Z,5.03
2022-11-21T05:35:44.902Z,5.32
2022-11-21T05:38:13.060Z,6.88
2022-11-21T05:40:41.229Z,7.25
2022-11-21T05:43:28.702Z,10.00
2022-11-21T05:45:57.981Z,5.97
2022-11-21T05:48:25.888Z,6.90
2022-11-21T05:50:53.765Z,6.15
2022-11-21T05:53:21.947Z,4.78
2022-11-21T05:55:49.899Z,8.60
2022-11-21T05:58:17.830Z,4.95
2022-11-21T06:00:45.832Z,5.60
2022-11-21T06:03:30.847Z,8.00
2022-11-21T06:06:06.042Z,4.00
2022-11-21T06:08:36.533Z,3.88
2022-11-21T06:11:05.990Z,7.57
2022-11-21T06:13:34.772Z,8.77
2022-11-21T06:16:06.387Z,5.90
2022-11-21T06:18:38.020Z,7.28
2022-11-21T06:21:08.690Z,7.22
2022-11-21T06:23:37.490Z,7.60
2022-11-21T06:26:07.343Z,9.18
2022-11-21T06:28:37.359Z,7.28
2022-11-21T06:31:05.912Z,7.80
2022-11-21T06:33:35.898Z,6.90
2022-11-21T06:36:04.502Z,11.90
2022-11-21T06:38:32.402Z,9.07
2022-11-21T06:41:00.416Z,10.32
2022-11-21T06:43:28.581Z,6.70
2022-11-21T06:45:57.023Z,4.15
2022-11-21T06:48:24.905Z,6.35
2022-11-21T06:50:54.129Z,5.97
2022-11-21T06:53:22.056Z,7.93
2022-11-21T06:55:49.901Z,6.20
2022-11-21T06:58:17.730Z,5.60
2022-11-21T07:00:46.140Z,8.57
2022-11-21T07:03:14.056Z,6.18
2022-11-21T07:05:41.958Z,7.88
2022-11-21T07:08:13.438Z,7.60
2022-11-21T07:10:57.231Z,6.68
2022-11-21T07:13:30.125Z,6.50
2022-11-21T07:16:03.520Z,8.90
2022-11-21T07:18:31.398Z,7.47
2022-11-21T07:21:00.459Z,5.93
2022-11-21T07:23:30.502Z,7.22
2022-11-21T07:26:01.957Z,4.18
2022-11-21T07:28:30.008Z,11.35
2022-11-21T07:30:58.191Z,4.85
2022-11-21T07:33:26.600Z,7.32
2022-11-21T07:35:56.548Z,6.93
2022-11-21T07:38:24.527Z,5.45
2022-11-21T07:40:54.131Z,5.47
2022-11-21T07:43:22.000Z,9.32
2022-11-21T07:45:49.873Z,8.80
2022-11-21T07:48:17.741Z,8.07
2022-11-21T07:50:45.617Z,8.85
2022-11-21T07:53:13.592Z,10.55
2022-11-21T07:55:41.563Z,6.30
2022-11-21T07:58:12.967Z,5.88
2022-11-21T08:00:43.427Z,7.25
2022-11-21T08:03:13.058Z,3.92
2022-11-21T08:05:44.331Z,7.90
2022-11-21T08:08:13.805Z,10.43
2022-11-21T08:10:43.358Z,6.32
2022-11-21T08:13:13.455Z,4.95
2022-11-21T08:15:41.974Z,6.47
2022-11-21T08:18:10.789Z,8.05
2022-11-21T08:20:38.973Z,6.45
2022-11-21T08:23:07.722Z,5.25
2022-11-21T08:25:37.746Z,8.40
2022-11-21T08:28:06.697Z,5.45
2022-11-21T08:30:36.912Z,3.20
2022-11-21T08:33:05.699Z,5.78
2022-11-21T08:35:33.889Z,4.57
2022-11-21T08:38:02.894Z,2.25
2022-11-21T08:40:32.338Z,7.63
2022-11-21T08:43:00.733Z,2.97
2022-11-21T08:45:29.114Z,6.22
2022-11-21T08:47:59.265Z,4.85
2022-11-21T08:50:28.553Z,4.97
2022-11-21T08:53:01.338Z,4.20
2022-11-21T08:55:29.413Z,6.53
2022-11-21T08:57:57.258Z,7.88
2022-11-21T09:00:25.149Z,7.68
2022-11-21T09:02:53.018Z,5.15
2022-11-21T09:05:22.319Z,6.32
2022-11-21T09:07:56.489Z,6.93
2022-11-21T09:10:24.434Z,6.15
2022-11-21T09:12:52.275Z,5.30
2022-11-21T09:15:37.046Z,11.30
2022-11-21T09:18:07.979Z,8.23
2022-11-21T09:20:43.064Z,4.25
2022-11-21T09:23:12.463Z,8.57
2022-11-21T09:25:40.970Z,5.03
2022-11-21T09:28:10.541Z,6.35
2022-11-21T09:30:38.982Z,6.85
2022-11-21T09:33:08.246Z,5.53
2022-11-21T09:35:37.472Z,6.30
2022-11-21T09:38:05.600Z,5.05
2022-11-21T09:40:35.278Z,8.43
2022-11-21T09:43:25.875Z,12.07
2022-11-21T09:45:57.828Z,6.55
2022-11-21T09:48:32.751Z,4.70
2022-11-21T09:51:06.948Z,4.00
2022-11-21T09:53:37.642Z,7.15
2022-11-21T09:56:08.462Z,4.20
2022-11-21T09:58:41.235Z,7.72
2022-11-21T10:01:13.338Z,4.90
2022-11-21T10:03:47.317Z,5.72
2022-11-21T10:06:20.953Z,9.73
2022-11-21T10:08:58.847Z,6.90
2022-11-21T10:11:59.775Z,4.55
2022-11-21T10:14:41.264Z,8.20
2022-11-21T10:17:19.457Z,6.80
2022-11-21T10:20:10.553Z,8.95
2022-11-21T10:22:55.170Z,5.75
2022-11-21T10:25:27.464Z,5.80
2022-11-21T10:27:59.370Z,5.10
2022-11-21T10:30:27.518Z,6.72
2022-11-21T10:32:58.234Z,7.78
2022-11-21T10:35:30.446Z,6.97
2022-11-21T10:38:02.857Z,11.73
2022-11-21T10:40:36.937Z,7.05
2022-11-21T10:43:23.760Z,5.45
2022-11-21T10:45:52.221Z,3.58
2022-11-21T10:48:20.350Z,4.97
2022-11-21T10:51:07.024Z,5.78
2022-11-21T10:53:53.836Z,6.40
2022-11-21T10:56:23.924Z,8.02
2022-11-21T10:58:54.068Z,9.45
2022-11-21T11:01:24.422Z,8.05
2022-11-21T11:04:32.147Z,4.55
2022-11-21T11:07:22.382Z,5.63
2022-11-21T11:09:53.531Z,4.57
2022-11-21T11:12:47.053Z,2.10
2022-11-21T11:15:23.432Z,5.38
2022-11-21T11:17:54.412Z,5.70
2022-11-21T11:20:38.135Z,7.40
2022-11-21T11:23:27.183Z,3.95
2022-11-21T11:25:58.339Z,7.03
2022-11-21T11:28:26.463Z,3.92
2022-11-21T11:30:56.067Z,3.53
2022-11-21T11:33:36.012Z,2.50
2022-11-21T11:36:15.202Z,5.57
2022-11-21T11:38:47.220Z,6.15
2022-11-21T11:41:27.800Z,6.30
2022-11-21T11:44:22.512Z,6.05
2022-11-21T11:47:19.829Z,5.80
2022-11-21T11:50:10.890Z,6.95
2022-11-21T11:52:45.412Z,4.65
2022-11-21T11:55:19.948Z,7.07
2022-11-21T11:57:53.985Z,4.90
2022-11-21T12:00:28.963Z,10.00
2022-11-21T12:03:04.930Z,6.10
2022-11-21T12:05:33.399Z,4.22
2022-11-21T12:11:25.019Z,2.33
2022-11-21T12:13:58.503Z,7.55
2022-11-21T12:16:28.132Z,4.65
2022-11-21T12:19:01.177Z,6.32
2022-11-21T12:21:29.678Z,4.38
2022-11-21T12:23:59.150Z,4.65
2022-11-21T12:26:38.870Z,4.50
2022-11-21T12:29:18.411Z,4.53
2022-11-21T12:32:02.186Z,5.25
2022-11-21T12:34:42.877Z,3.53
2022-11-21T12:37:22.012Z,7.00
2022-11-21T12:40:00.637Z,4.57
2022-11-21T12:42:51.610Z,2.97
2022-11-21T12:45:32.172Z,3.05
2022-11-21T12:48:38.425Z,1.75
2022-11-21T12:51:58.961Z,1.83
2022-11-21T12:54:49.600Z,3.90
2022-11-21T12:57:19.111Z,2.45
2022-11-21T12:59:58.708Z,13.15
2022-11-21T13:02:35.852Z,3.60
2022-11-21T13:05:05.903Z,3.70
2022-11-21T13:07:34.579Z,2.25
2022-11-21T13:10:05.986Z,2.92
2022-11-21T13:12:44.337Z,7.10
2022-11-21T13:15:21.994Z,8.27
2022-11-21T13:17:56.934Z,9.52
2022-11-21T13:20:32.810Z,3.92
2022-11-21T13:23:06.555Z,4.60
2022-11-21T13:25:40.567Z,7.25
2022-11-21T13:28:30.895Z,6.30
2022-11-21T13:31:00.954Z,1.83
2022-11-21T13:33:53.055Z,7.80
2022-11-21T13:36:43.655Z,4.95
2022-11-21T13:39:34.199Z,3.78
2022-11-21T13:42:24.424Z,6.93
2022-11-21T13:44:52.731Z,2.85
2022-11-21T13:48:00.486Z,3.95
2022-11-21T13:50:43.315Z,9.90
2022-11-21T13:53:30.074Z,19.05
2022-11-21T13:56:00.659Z,38.10
2022-11-21T13:58:55.713Z,2.63
2022-11-21T14:01:59.982Z,3.60
2022-11-21T14:04:53.143Z,3.63
2022-11-21T14:07:29.311Z,8.52
2022-11-21T14:09:58.620Z,12.80
2022-11-21T14:12:34.414Z,6.28
2022-11-21T14:15:21.836Z,4.35
2022-11-21T14:17:51.218Z,5.50
2022-11-21T14:20:22.979Z,3.65
2022-11-21T14:23:01.321Z,9.25
2022-11-21T14:25:36.755Z,13.25
2022-11-21T14:28:08.241Z,14.38
2022-11-21T14:30:38.737Z,16.13
2022-11-21T14:33:33.278Z,4.25
2022-11-21T14:36:04.674Z,6.65
2022-11-21T14:38:36.598Z,8.32
2022-11-21T14:41:24.798Z,4.97
2022-11-21T14:44:03.183Z,4.50
2022-11-21T14:46:32.792Z,5.57
2022-11-21T14:49:19.516Z,5.28
2022-11-21T14:51:50.564Z,7.72
2022-11-21T14:54:21.673Z,3.53
2022-11-21T14:56:55.582Z,5.72
2022-11-21T14:59:26.295Z,3.83
2022-11-21T15:02:00.632Z,6.35
2022-11-21T15:04:31.886Z,17.60
2022-11-21T15:07:00.710Z,7.28
2022-11-21T15:10:26.632Z,9.38
2022-11-21T15:12:26.725Z,8.23
2022-11-21T15:14:58.739Z,9.88
2022-11-21T15:17:28.474Z,6.85
2022-11-21T15:20:18.322Z,12.80
2022-11-21T15:22:48.109Z,6.07
2022-11-21T15:25:20.438Z,10.80
2022-11-21T15:27:49.098Z,10.13
2022-11-21T15:30:24.718Z,11.05
2022-11-21T15:33:04.552Z,8.90
2022-11-21T15:35:45.348Z,9.27
2022-11-21T15:38:18.407Z,9.50
2022-11-21T15:41:27.919Z,11.80
2022-11-21T15:43:56.991Z,14.60
2022-11-21T15:46:27.088Z,14.90
2022-11-21T15:48:57.026Z,14.75
2022-11-21T15:51:51.462Z,10.18
2022-11-21T15:54:17.147Z,11.35
2022-11-21T15:56:47.211Z,12.05
2022-11-21T15:59:16.141Z,14.18
2022-11-21T16:01:44.207Z,12.20
2022-11-21T16:04:13.334Z,19.70
2022-11-21T16:06:41.387Z,14.50
2022-11-21T16:09:09.228Z,19.05
2022-11-21T16:11:39.278Z,17.27
2022-11-21T16:14:10.081Z,12.73
2022-11-21T16:16:43.257Z,14.63
2022-11-21T16:19:12.782Z,17.13
2022-11-21T16:21:41.041Z,13.95
2022-11-21T16:24:09.635Z,10.02
2022-11-21T16:26:37.950Z,12.25
2022-11-21T16:29:06.420Z,16.13
2022-11-21T16:31:35.836Z,13.95
2022-11-21T16:34:03.747Z,15.80
2022-11-21T16:36:33.188Z,15.20
2022-11-21T16:39:08.802Z,14.80
2022-11-21T16:41:37.006Z,12.35
2022-11-21T16:44:05.190Z,15.30
2022-11-21T16:46:33.032Z,17.45
2022-11-21T16:49:04.408Z,16.52
2022-11-21T16:51:32.238Z,16.02
2022-11-21T16:54:04.385Z,14.77
2022-11-21T16:56:36.327Z,21.83
2022-11-21T16:59:04.506Z,14.18
2022-11-21T17:01:32.548Z,13.77
2022-11-21T17:04:02.256Z,14.63
2022-11-21T17:06:32.101Z,14.18
2022-11-21T17:09:01.052Z,16.90
2022-11-21T17:11:31.275Z,16.17
2022-11-21T17:14:02.270Z,14.48
2022-11-21T17:16:30.617Z,19.98
2022-11-21T17:18:59.975Z,20.45
2022-11-21T17:21:30.336Z,13.60
2022-11-21T17:23:59.155Z,18.45
2022-11-21T17:26:28.862Z,14.95
2022-11-21T17:28:58.748Z,20.90
2022-11-21T17:31:28.270Z,22.80
2022-11-21T17:33:57.645Z,19.92
2022-11-21T17:36:28.013Z,14.85
2022-11-21T17:38:57.463Z,16.25
2022-11-21T17:41:26.357Z,14.25
2022-11-21T17:43:58.597Z,20.02
2022-11-21T17:46:28.428Z,23.55
2022-11-21T17:48:58.829Z,17.23
2022-11-21T17:51:29.944Z,19.35
2022-11-21T17:53:59.593Z,21.42
2022-11-21T17:56:29.345Z,23.50
2022-11-21T17:58:57.836Z,26.80
2022-11-21T18:01:25.950Z,21.25
2022-11-21T18:03:56.870Z,26.42
2022-11-21T18:06:25.278Z,61.35
2022-11-21T18:08:53.401Z,297.98
2022-11-21T18:11:23.307Z,328.38
2022-11-21T18:13:51.986Z,122.95
2022-11-21T18:16:21.883Z,45.20
2022-11-21T18:18:50.487Z,36.20
2022-11-21T18:21:20.312Z,30.08
2022-11-21T18:23:48.192Z,23.15
2022-11-21T18:26:17.527Z,18.83
2022-11-21T18:28:46.961Z,21.23
2022-11-21T18:31:16.686Z,27.05
2022-11-21T18:33:45.336Z,19.38
2022-11-21T18:36:13.728Z,18.42
2022-11-21T18:38:56.557Z,18.80
2022-11-21T18:41:31.887Z,20.52
2022-11-21T18:44:02.513Z,23.25
2022-11-21T18:46:31.508Z,21.15
2022-11-21T18:49:05.335Z,17.85
2022-11-21T18:51:35.441Z,28.27
2022-11-21T18:54:07.444Z,32.33
2022-11-21T18:56:35.841Z,71.55
2022-11-21T18:59:06.856Z,52.60
2022-11-21T19:01:36.814Z,42.53
2022-11-21T19:04:05.439Z,24.23
2022-11-21T19:06:33.606Z,22.77
2022-11-21T19:09:01.527Z,45.13
2022-11-21T19:11:30.914Z,22.25
2022-11-21T19:14:00.563Z,19.42
2022-11-21T19:16:34.057Z,21.63
2022-11-21T19:21:52.934Z,24.98
2022-11-21T19:24:20.903Z,20.02
2022-11-21T19:26:50.508Z,21.15
2022-11-21T19:29:19.220Z,22.92
2022-11-21T19:31:48.544Z,20.50
2022-11-21T19:34:16.971Z,20.63
2022-11-21T19:36:45.705Z,19.20
2022-11-21T19:39:14.117Z,28.27
2022-11-21T19:41:42.471Z,26.10
2022-11-21T19:44:11.506Z,23.08
2022-11-21T19:46:40.402Z,24.13
2022-11-21T19:49:11.509Z,23.35
2022-11-21T19:51:41.833Z,24.65
2022-11-21T19:54:12.283Z,24.30
2022-11-21T19:56:40.636Z,20.15
2022-11-21T19:59:11.152Z,21.20
2022-11-21T20:01:39.728Z,15.35
2022-11-21T20:04:09.288Z,20.30
2022-11-21T20:06:40.043Z,27.02
2022-11-21T20:09:09.862Z,21.30
2022-11-21T20:11:39.509Z,19.70
2022-11-21T20:14:08.234Z,23.05
2022-11-21T20:16:37.757Z,23.45
2022-11-21T20:19:07.692Z,18.58
2022-11-21T20:21:37.847Z,18.85
2022-11-21T20:24:06.552Z,16.90
2022-11-21T20:26:35.377Z,19.10
2022-11-21T20:29:04.175Z,21.02
2022-11-21T20:31:33.736Z,18.65
2022-11-21T20:34:04.454Z,18.30
2022-11-21T20:36:36.629Z,18.60
2022-11-21T20:39:08.215Z,18.33
2022-11-21T20:41:37.431Z,18.25
2022-11-21T20:46:55.005Z,18.48
2022-11-21T20:49:22.826Z,16.00
2022-11-21T20:54:41.005Z,15.48
2022-11-21T20:57:14.550Z,19.95
2022-11-21T20:59:43.289Z,17.27
2022-11-21T21:02:14.027Z,21.92
2022-11-21T21:04:42.655Z,18.23
2022-11-21T21:07:11.023Z,16.77
2022-11-21T21:09:40.588Z,13.50
2022-11-21T21:12:08.767Z,14.10
2022-11-21T21:14:36.689Z,13.40
2022-11-21T21:17:04.643Z,14.00
2022-11-21T21:19:32.764Z,11.90
2022-11-21T21:22:04.170Z,13.95
2022-11-21T21:24:32.053Z,13.00
2022-11-21T21:27:01.319Z,15.55
2022-11-21T21:29:29.455Z,15.00
2022-11-21T21:31:57.686Z,12.30
2022-11-21T21:34:25.724Z,12.15
2022-11-21T21:36:53.602Z,12.55
2022-11-21T21:39:21.476Z,13.98
2022-11-21T21:41:49.293Z,11.27
2022-11-21T21:44:18.968Z,12.82
2022-11-21T21:46:46.840Z,17.10
2022-11-21T21:49:14.819Z,17.90
2022-11-21T21:51:43.067Z,11.93
2022-11-21T21:54:19.123Z,14.93
2022-11-21T21:56:47.740Z,20.40
2022-11-21T21:59:18.213Z,22.67
2022-11-21T22:01:47.682Z,51.00
2022-11-21T22:04:15.734Z,68.70
2022-11-21T22:06:43.558Z,28.10
2022-11-21T22:09:11.649Z,21.65
2022-11-21T22:11:39.931Z,14.65
2022-11-21T22:14:11.571Z,16.35
2022-11-21T22:16:39.771Z,14.40
2022-11-21T22:19:09.627Z,20.15
2022-11-21T22:21:38.928Z,19.85
2022-11-21T22:24:28.485Z,24.77
2022-11-21T22:26:56.900Z,25.63
2022-11-21T22:29:24.796Z,19.25
2022-11-21T22:31:52.795Z,13.85
2022-11-21T22:34:22.430Z,18.63
2022-11-21T22:36:50.331Z,13.40
2022-11-21T22:39:18.427Z,17.75
2022-11-21T22:41:46.623Z,15.93
2022-11-21T22:44:14.653Z,23.60
2022-11-21T22:46:42.507Z,19.65
2022-11-21T22:49:10.391Z,17.88
2022-11-21T22:51:39.622Z,20.10
2022-11-21T22:54:07.542Z,23.15
2022-11-21T22:56:35.490Z,21.15
2022-11-21T22:59:03.335Z,22.55
2022-11-21T23:01:33.795Z,21.73
2022-11-21T23:04:01.663Z,16.80
2022-11-21T23:06:29.524Z,16.77
2022-11-21T23:08:59.291Z,13.85
2022-11-21T23:11:28.626Z,15.32
2022-11-21T23:13:57.414Z,12.73
2022-11-21T23:16:25.737Z,13.93
2022-11-21T23:18:54.214Z,22.88
2022-11-21T23:21:22.564Z,22.65
2022-11-21T23:23:50.468Z,21.42
2022-11-21T23:26:20.361Z,17.52
2022-11-21T23:28:48.548Z,14.27
2022-11-21T23:31:16.624Z,15.63
2022-11-21T23:33:44.508Z,17.42
2022-11-21T23:36:12.471Z,16.27
2022-11-21T23:38:40.352Z,14.85
2022-11-21T23:41:08.245Z,18.40
2022-11-21T23:43:37.559Z,20.52
2022-11-21T23:46:05.695Z,15.90
2022-11-21T23:48:33.508Z,14.65
2022-11-21T23:51:01.386Z,15.98
2022-11-21T23:53:29.347Z,16.17
2022-11-21T23:55:57.257Z,13.60
2022-11-21T23:58:25.098Z,16.13
